Time;durP1;ratioP1;P1;durP2;ratioP2;P2;SDS_P1;SDS_P2;PMS_P1;PMS_P2;Temp;Humidity;BMP_temperature;BMP_pressure;BME280_temperature;BME280_humidity;BME280_pressure;Samples;Min_cycle;Max_cycle;Signal;HPM_P1;HPM_P2
2022/01/19 00:01:08;;;;;;;22.08;10.40;;;2.80;99.90;;;;;;4944223;29;20031;-89
2022/01/19 00:03:37;;;;;;;15.00;7.88;;;2.80;99.90;;;;;;4944157;29;20059;-92
2022/01/19 00:06:03;;;;;;;15.98;8.85;;;2.70;99.90;;;;;;4960624;29;20016;-89
2022/01/19 00:08:32;;;;;;;24.80;9.30;;;2.80;99.90;;;;;;4960603;29;20200;-88
2022/01/19 00:11:01;;;;;;;22.60;9.70;;;2.70;99.90;;;;;;4944277;29;20036;-90
2022/01/19 00:13:29;;;;;;;20.25;9.82;;;2.70;99.90;;;;;;4944158;29;20022;-89
2022/01/19 00:15:57;;;;;;;21.55;9.23;;;2.80;99.90;;;;;;4960421;29;20020;-91
2022/01/19 00:18:24;;;;;;;21.38;10.40;;;2.80;99.90;;;;;;4960380;29;20043;-89
2022/01/19 00:20:53;;;;;;;18.40;8.32;;;2.80;99.90;;;;;;4960488;29;20028;-89
2022/01/19 00:23:20;;;;;;;22.90;8.88;;;2.80;99.90;;;;;;4943739;29;20024;-90
2022/01/19 00:25:51;;;;;;;22.27;10.23;;;2.80;99.90;;;;;;4943826;29;20048;-96
2022/01/19 00:28:17;;;;;;;18.10;9.85;;;2.80;99.90;;;;;;4943701;29;20024;-91
2022/01/19 00:30:43;;;;;;;21.75;9.98;;;2.80;99.90;;;;;;4943905;29;20040;-90
2022/01/19 00:33:09;;;;;;;21.00;9.65;;;2.80;99.90;;;;;;4960461;29;20015;-92
2022/01/19 00:35:36;;;;;;;24.58;9.75;;;2.80;99.90;;;;;;4943730;29;20034;-89
2022/01/19 00:38:05;;;;;;;25.77;10.43;;;2.80;99.90;;;;;;4943809;29;20068;-92
2022/01/19 00:40:33;;;;;;;25.55;10.52;;;2.80;99.90;;;;;;4943635;29;20043;-90
2022/01/19 00:42:59;;;;;;;22.15;10.02;;;2.80;99.90;;;;;;4943635;29;20048;-89
2022/01/19 00:45:25;;;;;;;22.08;8.80;;;2.80;99.90;;;;;;4943538;29;20023;-88
2022/01/19 00:47:54;;;;;;;25.20;10.75;;;2.80;99.90;;;;;;4946897;29;20016;-88
2022/01/19 00:50:26;;;;;;;15.38;8.45;;;2.80;99.90;;;;;;4963979;29;20072;-90
2022/01/19 00:52:52;;;;;;;25.45;10.20;;;2.80;99.90;;;;;;4947503;29;20024;-93
2022/01/19 00:55:20;;;;;;;27.90;11.48;;;2.80;99.90;;;;;;4946986;29;20063;-93
2022/01/19 00:57:46;;;;;;;23.48;10.35;;;2.80;99.90;;;;;;4947119;29;20011;-89
2022/01/19 01:00:30;;;;;;;27.33;11.93;;;2.80;99.90;;;;;;4947072;29;20023;-91
2022/01/19 01:02:56;;;;;;;22.20;10.45;;;2.90;99.90;;;;;;4947393;29;20020;-94
2022/01/19 01:05:22;;;;;;;29.17;11.18;;;2.90;99.90;;;;;;4947041;29;20031;-94
2022/01/19 01:07:49;;;;;;;24.73;9.77;;;3.00;99.90;;;;;;4946959;29;20028;-93
2022/01/19 01:10:17;;;;;;;23.92;11.45;;;3.00;99.90;;;;;;4947032;29;20040;-90
2022/01/19 01:12:54;;;;;;;33.15;12.23;;;3.00;99.90;;;;;;4946703;29;20026;-93
2022/01/19 01:15:48;;;;;;;28.80;12.82;;;3.10;99.90;;;;;;4963537;29;20053;-89
2022/01/19 01:18:19;;;;;;;31.90;14.45;;;3.10;99.90;;;;;;4946889;29;20052;-89
2022/01/19 01:20:50;;;;;;;31.92;14.60;;;3.20;99.90;;;;;;4963730;29;20092;-89
2022/01/19 01:23:18;;;;;;;26.48;13.70;;;3.20;99.90;;;;;;4947107;29;20048;-91
2022/01/19 01:25:44;;;;;;;26.23;13.73;;;3.30;99.90;;;;;;4963832;29;20012;-91
2022/01/19 01:28:10;;;;;;;31.55;16.48;;;3.30;99.90;;;;;;4947043;29;20065;-88
2022/01/19 01:30:37;;;;;;;26.48;13.32;;;3.30;99.90;;;;;;4946911;29;20023;-89
2022/01/19 01:33:04;;;;;;;19.00;9.30;;;3.30;99.90;;;;;;4963403;29;20016;-88
2022/01/19 01:35:30;;;;;;;31.38;13.52;;;3.40;99.90;;;;;;4963350;29;20075;-89
2022/01/19 01:37:56;;;;;;;27.98;13.18;;;3.40;99.90;;;;;;4946855;29;20012;-89
2022/01/19 01:40:24;;;;;;;23.25;12.57;;;3.40;99.90;;;;;;4946754;29;20016;-88
2022/01/19 01:42:51;;;;;;;29.80;13.07;;;3.40;99.90;;;;;;4946558;29;20031;-92
2022/01/19 01:45:22;;;;;;;22.20;10.80;;;3.50;99.90;;;;;;4946430;29;20020;-89
2022/01/19 01:47:54;;;;;;;20.35;9.35;;;3.50;99.90;;;;;;4962810;29;20012;-90
2022/01/19 01:55:50;;;;;;;16.13;8.77;;;3.70;99.90;;;;;;4962496;29;20067;-93
2022/01/19 01:58:16;;;;;;;33.00;8.48;;;3.80;99.90;;;;;;4945217;29;20020;-93
2022/01/19 02:00:42;;;;;;;18.25;9.10;;;3.90;99.90;;;;;;4945951;29;20030;-93
2022/01/19 02:03:09;;;;;;;25.50;10.30;;;4.00;99.90;;;;;;4962395;29;20027;-92
2022/01/19 02:05:42;;;;;;;23.77;9.93;;;4.10;99.90;;;;;;4962660;29;20023;-89
2022/01/19 02:08:18;;;;;;;16.38;9.18;;;4.20;99.90;;;;;;4944047;29;20030;-95
2022/01/19 02:11:18;;;;;;;21.27;9.57;;;4.20;99.90;;;;;;4944402;29;20028;-93
2022/01/19 02:22:06;;;;;;;21.30;10.13;;;4.40;99.90;;;;;;4947919;29;20070;-90
2022/01/19 02:24:42;;;;;;;23.75;9.50;;;4.40;99.90;;;;;;4945500;29;20027;-90
2022/01/19 02:40:29;;;;;;;22.85;11.55;;;4.50;99.90;;;;;;4962321;29;20027;-90
2022/01/19 02:50:52;;;;;;;22.83;11.73;;;4.60;99.90;;;;;;4961682;29;20038;-90
2022/01/19 02:53:18;;;;;;;21.75;8.65;;;4.60;99.90;;;;;;4945213;29;20020;-89
2022/01/19 02:55:45;;;;;;;23.70;9.80;;;4.60;99.90;;;;;;4944560;29;20060;-88
2022/01/19 02:58:14;;;;;;;21.30;10.10;;;4.60;99.90;;;;;;4945130;29;20012;-88
2022/01/19 03:08:57;;;;;;;25.23;9.70;;;4.60;99.90;;;;;;4961062;29;20083;-91
2022/01/19 03:11:24;;;;;;;21.73;10.07;;;4.60;99.90;;;;;;4944467;29;20031;-91
2022/01/19 03:13:50;;;;;;;26.60;8.70;;;4.70;99.90;;;;;;4944973;29;20035;-89
2022/01/19 03:16:20;;;;;;;23.05;8.43;;;4.70;99.90;;;;;;4945309;29;20015;-91
2022/01/19 03:18:48;;;;;;;41.88;11.80;;;4.70;99.90;;;;;;4961785;29;20092;-88
2022/01/19 03:21:14;;;;;;;26.52;8.73;;;4.70;99.90;;;;;;4945269;29;20040;-89
2022/01/19 03:23:40;;;;;;;15.90;8.05;;;4.80;99.90;;;;;;4945090;29;20046;-88
2022/01/19 03:26:07;;;;;;;20.95;8.40;;;4.70;99.90;;;;;;4961646;28;20019;-89
2022/01/19 03:28:36;;;;;;;23.92;9.10;;;4.70;99.90;;;;;;4944886;29;20032;-88
2022/01/19 03:31:03;;;;;;;26.15;8.93;;;4.70;99.90;;;;;;4945000;29;20015;-89
2022/01/19 03:33:29;;;;;;;16.60;8.30;;;4.70;99.90;;;;;;4944862;29;20020;-89
2022/01/19 03:36:00;;;;;;;19.30;8.60;;;4.70;99.90;;;;;;4944592;29;20028;-87
2022/01/19 03:38:26;;;;;;;17.73;7.80;;;4.70;99.90;;;;;;4961294;29;20012;-89
2022/01/19 03:40:54;;;;;;;19.02;8.52;;;4.70;99.90;;;;;;4944776;29;20099;-88
2022/01/19 03:43:20;;;;;;;17.63;7.90;;;4.70;99.90;;;;;;4944589;29;20027;-89
2022/01/19 03:45:53;;;;;;;15.63;8.77;;;4.70;99.90;;;;;;4944569;29;20020;-88
2022/01/19 03:48:42;;;;;;;20.02;9.45;;;4.80;99.90;;;;;;4960981;29;21040;-89
2022/01/19 03:51:07;;;;;;;17.17;6.55;;;4.80;99.90;;;;;;4944513;29;20067;-89
2022/01/19 03:53:33;;;;;;;11.15;4.95;;;4.80;99.90;;;;;;4944395;29;20023;-88
2022/01/19 03:56:03;;;;;;;17.95;5.63;;;4.80;99.90;;;;;;4960372;29;20047;-87
2022/01/19 03:58:28;;;;;;;11.75;5.07;;;4.90;99.90;;;;;;4944317;29;20043;-87
2022/01/19 04:00:57;;;;;;;10.75;4.90;;;5.00;99.90;;;;;;4960806;29;20022;-90
2022/01/19 04:04:26;;;;;;;14.40;5.05;;;5.10;99.90;;;;;;4960538;29;20035;-87
2022/01/19 04:06:20;;;;;;;12.85;5.05;;;5.10;99.90;;;;;;4948012;29;20020;-88
2022/01/19 04:08:46;;;;;;;10.77;5.28;;;5.20;99.90;;;;;;4944539;29;20035;-92
2022/01/19 04:11:14;;;;;;;11.38;6.03;;;5.20;99.90;;;;;;4944524;29;20112;-91
2022/01/19 04:14:21;;;;;;;9.35;5.03;;;5.30;99.90;;;;;;4960841;29;20034;-86
2022/01/19 04:16:26;;;;;;;9.18;4.72;;;5.40;99.90;;;;;;4960517;29;20020;-89
2022/01/19 04:19:01;;;;;;;13.68;5.13;;;5.40;99.90;;;;;;4944611;29;20019;-86
2022/01/19 04:21:27;;;;;;;17.52;5.93;;;5.50;99.90;;;;;;4943964;29;20026;-88
2022/01/19 04:23:53;;;;;;;16.17;5.53;;;5.50;99.90;;;;;;4944242;29;20024;-88
2022/01/19 04:26:18;;;;;;;11.65;5.57;;;5.50;99.90;;;;;;4944316;29;20016;-89
2022/01/19 04:28:44;;;;;;;14.35;5.70;;;5.50;99.90;;;;;;4943761;29;20059;-90
2022/01/19 04:31:10;;;;;;;13.18;5.15;;;5.50;99.90;;;;;;4959606;29;20039;-95
2022/01/19 04:33:40;;;;;;;13.57;5.22;;;5.60;99.90;;;;;;4943198;29;20058;-94
2022/01/19 04:36:21;;;;;;;13.05;4.40;;;5.60;99.90;;;;;;4943159;29;20016;-90
2022/01/19 04:39:26;;;;;;;17.02;4.93;;;5.60;99.90;;;;;;4943248;29;20034;-90
2022/01/19 05:05:58;;;;;;;10.98;4.93;;;6.00;99.90;;;;;;4901187;29;20049;-94
2022/01/19 05:08:46;;;;;;;16.38;5.20;;;6.00;99.90;;;;;;4885216;29;20052;-93
2022/01/19 05:13:54;;;;;;;15.88;5.30;;;6.00;99.90;;;;;;4902015;29;20043;-90
2022/01/19 05:16:22;;;;;;;11.20;5.00;;;6.10;99.90;;;;;;4886156;29;20049;-90
2022/01/19 05:18:53;;;;;;;10.90;4.43;;;6.10;99.90;;;;;;4885199;29;20013;-93
2022/01/19 05:21:19;;;;;;;9.88;5.18;;;6.10;99.90;;;;;;4901066;29;20037;-93
2022/01/19 05:24:04;;;;;;;11.75;4.80;;;6.10;99.90;;;;;;4900663;29;20136;-90
2022/01/19 05:26:32;;;;;;;14.48;4.78;;;6.20;99.90;;;;;;4912399;29;20042;-90
2022/01/19 05:28:58;;;;;;;17.48;4.30;;;6.20;99.90;;;;;;4942486;29;20059;-89
2022/01/19 05:31:24;;;;;;;8.88;4.13;;;6.20;99.90;;;;;;4942621;29;20023;-89
2022/01/19 05:33:50;;;;;;;12.07;4.70;;;6.20;99.90;;;;;;4945633;29;20103;-91
2022/01/19 05:36:15;;;;;;;9.40;4.75;;;6.30;99.90;;;;;;4946162;29;20031;-89
2022/01/19 05:38:41;;;;;;;10.15;4.65;;;6.30;99.90;;;;;;4945672;29;20035;-91
2022/01/19 05:41:08;;;;;;;15.65;4.90;;;6.30;99.90;;;;;;4945987;29;20040;-89
2022/01/19 05:43:34;;;;;;;10.60;4.28;;;6.40;99.90;;;;;;4945932;29;20016;-91
2022/01/19 05:45:59;;;;;;;9.23;4.43;;;6.40;99.90;;;;;;4945659;29;20075;-89
2022/01/19 05:48:25;;;;;;;12.73;4.22;;;6.40;99.90;;;;;;4962361;29;20036;-90
2022/01/19 05:50:51;;;;;;;9.82;4.10;;;6.40;99.90;;;;;;4962558;29;20059;-89
2022/01/19 05:53:19;;;;;;;13.10;4.57;;;6.40;99.90;;;;;;4946018;29;20025;-90
2022/01/19 05:55:45;;;;;;;14.60;4.60;;;6.40;99.90;;;;;;4962190;29;20052;-90
2022/01/19 05:58:11;;;;;;;13.73;4.22;;;6.40;99.90;;;;;;4962565;29;20016;-91
2022/01/19 06:00:40;;;;;;;7.90;4.60;;;6.50;99.90;;;;;;4945935;29;20023;-92
2022/01/19 06:03:06;;;;;;;8.30;4.50;;;6.50;99.90;;;;;;4945568;29;20032;-88
2022/01/19 06:05:33;;;;;;;10.05;4.38;;;6.50;99.90;;;;;;4962090;29;20043;-91
2022/01/19 06:08:16;;;;;;;9.43;4.22;;;6.50;99.90;;;;;;4945387;29;20030;-91
2022/01/19 06:10:43;;;;;;;11.35;4.65;;;6.50;99.90;;;;;;4946172;29;20034;-91
2022/01/19 06:13:10;;;;;;;7.00;4.43;;;6.50;99.90;;;;;;4945817;29;20030;-89
2022/01/19 06:15:36;;;;;;;18.83;5.03;;;6.50;99.90;;;;;;4945907;29;20039;-90
2022/01/19 06:18:02;;;;;;;12.15;4.95;;;6.50;99.90;;;;;;4946231;29;20032;-89
2022/01/19 06:20:29;;;;;;;8.55;4.03;;;6.50;99.90;;;;;;4946086;29;20019;-90
2022/01/19 06:22:55;;;;;;;9.13;4.00;;;6.60;99.90;;;;;;4945883;29;20091;-88
2022/01/19 06:25:20;;;;;;;12.90;3.88;;;6.60;99.90;;;;;;4962612;29;20035;-91
2022/01/19 06:27:46;;;;;;;12.77;4.13;;;6.50;99.90;;;;;;4945986;29;20059;-89
2022/01/19 06:30:12;;;;;;;9.15;3.92;;;6.60;99.90;;;;;;4944170;29;20055;-89
2022/01/19 06:32:38;;;;;;;16.70;4.43;;;6.60;99.90;;;;;;4943940;29;20043;-94
2022/01/19 06:35:05;;;;;;;8.18;4.32;;;6.70;99.90;;;;;;4943894;29;20051;-94
2022/01/19 06:37:31;;;;;;;11.55;4.20;;;6.70;99.90;;;;;;4930058;29;20036;-96
2022/01/19 06:39:57;;;;;;;8.98;3.90;;;6.70;99.90;;;;;;4945074;29;20071;-92
2022/01/19 06:42:23;;;;;;;9.18;3.50;;;6.80;99.90;;;;;;4944849;29;20035;-91
2022/01/19 06:44:48;;;;;;;9.32;4.50;;;6.70;99.90;;;;;;4942937;29;20083;-96
2022/01/19 06:47:15;;;;;;;12.98;4.82;;;6.80;99.90;;;;;;4942261;29;20035;-94
2022/01/19 06:49:42;;;;;;;7.55;4.38;;;6.80;99.90;;;;;;4959118;29;20031;-96
2022/01/19 06:52:12;;;;;;;12.80;4.35;;;6.80;99.90;;;;;;4943641;29;20031;-95
2022/01/19 06:54:40;;;;;;;12.07;4.80;;;6.80;99.90;;;;;;4926776;29;20040;-95
2022/01/19 06:57:06;;;;;;;8.63;4.13;;;6.80;99.90;;;;;;4938462;29;20028;-92
2022/01/19 06:59:33;;;;;;;10.18;4.45;;;6.80;99.90;;;;;;4944161;29;20032;-95
2022/01/19 07:01:59;;;;;;;8.75;4.45;;;6.80;99.90;;;;;;4936366;29;20039;-96
2022/01/19 07:04:25;;;;;;;10.15;5.18;;;6.80;99.90;;;;;;4936760;29;20245;-96
2022/01/19 07:06:52;;;;;;;11.85;4.13;;;6.80;99.90;;;;;;4939704;29;20032;-96
2022/01/19 07:09:18;;;;;;;10.18;4.53;;;6.80;99.90;;;;;;4936967;29;20047;-93
2022/01/19 07:11:44;;;;;;;11.82;4.63;;;6.70;99.90;;;;;;4922625;29;20032;-96
2022/01/19 07:14:12;;;;;;;11.63;5.40;;;6.70;99.90;;;;;;4939547;29;20301;-95
2022/01/19 07:16:39;;;;;;;14.68;6.50;;;6.70;99.90;;;;;;4939620;29;20087;-95
2022/01/19 07:19:06;;;;;;;9.48;5.80;;;6.70;99.90;;;;;;4959530;29;20034;-93
2022/01/19 07:21:38;;;;;;;14.88;7.63;;;6.60;99.90;;;;;;4942527;29;20024;-92
2022/01/19 07:24:06;;;;;;;13.35;7.60;;;6.60;99.90;;;;;;4942620;29;20032;-91
2022/01/19 07:26:35;;;;;;;10.52;6.95;;;6.60;99.90;;;;;;4959157;29;20027;-92
2022/01/19 07:29:02;;;;;;;13.23;6.80;;;6.60;99.90;;;;;;4941239;29;20036;-89
2022/01/19 07:31:29;;;;;;;14.85;7.50;;;6.50;99.90;;;;;;4903061;29;20040;-89
2022/01/19 07:33:58;;;;;;;11.75;7.20;;;6.50;99.90;;;;;;4924436;29;20020;-92
2022/01/19 07:36:29;;;;;;;15.90;7.63;;;6.50;99.90;;;;;;4941013;29;20024;-90
2022/01/19 07:38:55;;;;;;;11.25;6.85;;;6.50;99.90;;;;;;4941333;29;20013;-92
2022/01/19 07:41:21;;;;;;;15.70;7.30;;;6.50;99.90;;;;;;4924643;29;20031;-88
2022/01/19 07:43:48;;;;;;;14.82;5.95;;;6.40;99.90;;;;;;4924821;29;20027;-89
2022/01/19 07:46:16;;;;;;;15.43;6.53;;;6.40;99.90;;;;;;4927257;29;20024;-89
2022/01/19 07:48:41;;;;;;;11.95;6.50;;;6.50;99.90;;;;;;4939384;29;20039;-89
2022/01/19 07:51:10;;;;;;;14.43;6.75;;;6.50;99.90;;;;;;4960503;29;20044;-93
2022/01/19 07:53:37;;;;;;;19.05;8.63;;;6.50;99.90;;;;;;4944300;29;20042;-91
2022/01/19 07:56:06;;;;;;;17.42;9.48;;;6.60;99.90;;;;;;4927339;29;20044;-92
2022/01/19 07:58:32;;;;;;;16.92;9.48;;;6.70;99.90;;;;;;4935529;29;20020;-88
2022/01/19 08:01:07;;;;;;;23.27;11.45;;;6.70;99.90;;;;;;4924977;29;20044;-91
2022/01/19 08:03:35;;;;;;;17.05;9.75;;;6.80;99.90;;;;;;4910618;29;20050;-92
2022/01/19 08:06:13;;;;;;;18.80;10.77;;;6.80;99.90;;;;;;4924475;29;20087;-94
2022/01/19 08:08:42;;;;;;;18.05;11.15;;;6.90;99.90;;;;;;4925320;29;20032;-91
2022/01/19 08:11:13;;;;;;;21.17;10.13;;;6.90;99.90;;;;;;4909146;29;20032;-96
2022/01/19 08:13:57;;;;;;;21.48;10.85;;;6.90;99.90;;;;;;4924544;29;20139;-94
2022/01/19 08:16:26;;;;;;;24.02;10.70;;;7.00;99.90;;;;;;4935347;29;20032;-95
2022/01/19 08:18:52;;;;;;;18.85;10.43;;;7.00;99.90;;;;;;4909093;29;20035;-94
2022/01/19 08:21:17;;;;;;;22.10;11.10;;;7.00;99.90;;;;;;4915081;29;20031;-94
2022/01/19 08:23:43;;;;;;;22.55;11.02;;;7.00;99.90;;;;;;4906433;29;20062;-95
2022/01/19 08:26:13;;;;;;;30.80;13.98;;;7.00;99.90;;;;;;4906439;29;20032;-92
2022/01/19 08:28:39;;;;;;;22.27;10.98;;;7.00;99.90;;;;;;4903539;29;20036;-92
2022/01/19 08:31:05;;;;;;;18.00;10.18;;;7.00;99.90;;;;;;4909648;29;20028;-93
2022/01/19 08:33:33;;;;;;;10.90;6.03;;;7.00;99.90;;;;;;4905924;29;20064;-93
2022/01/19 08:36:08;;;;;;;20.67;9.73;;;7.00;99.90;;;;;;4906631;29;20043;-94
2022/01/19 08:38:36;;;;;;;18.23;11.35;;;7.00;99.90;;;;;;4897433;29;20060;-93
2022/01/19 08:41:05;;;;;;;18.88;9.68;;;7.00;99.90;;;;;;4921786;29;20083;-96
2022/01/19 08:43:32;;;;;;;14.10;7.93;;;7.00;99.90;;;;;;4900126;29;20020;-95
2022/01/19 08:45:58;;;;;;;18.15;9.85;;;7.00;99.90;;;;;;4939894;29;20034;-96
2022/01/19 08:48:27;;;;;;;9.23;6.45;;;7.00;99.90;;;;;;4912920;29;20064;-94
2022/01/19 08:50:54;;;;;;;14.63;8.63;;;7.00;99.90;;;;;;4905894;29;20024;-95
2022/01/19 08:53:21;;;;;;;14.20;8.05;;;7.00;99.90;;;;;;4917301;29;20020;-94
2022/01/19 08:55:48;;;;;;;12.35;8.13;;;7.00;99.90;;;;;;4912097;29;20048;-94
2022/01/19 08:58:16;;;;;;;13.23;7.47;;;7.00;99.90;;;;;;4920048;29;20028;-93
2022/01/19 09:00:44;;;;;;;8.38;6.63;;;7.00;99.90;;;;;;4903489;29;20055;-93
2022/01/19 09:03:11;;;;;;;5.25;2.95;;;7.00;99.90;;;;;;4901570;29;20429;-93
2022/01/19 09:05:37;;;;;;;3.78;2.03;;;7.00;99.90;;;;;;4901054;29;20028;-95
2022/01/19 09:08:03;;;;;;;7.40;2.15;;;7.00;99.90;;;;;;4902828;29;20489;-96
2022/01/19 09:10:29;;;;;;;4.72;1.92;;;7.10;99.90;;;;;;4904105;29;20552;-93
2022/01/19 09:12:55;;;;;;;8.43;1.75;;;7.10;99.90;;;;;;4904355;29;20024;-93
2022/01/19 09:15:22;;;;;;;6.43;1.85;;;7.10;99.90;;;;;;4914018;29;20032;-93
2022/01/19 09:17:49;;;;;;;19.23;2.47;;;7.10;99.90;;;;;;4903534;29;20071;-92
2022/01/19 09:20:16;;;;;;;10.95;2.08;;;7.00;99.90;;;;;;4903365;29;20123;-93
2022/01/19 09:22:42;;;;;;;15.43;2.58;;;7.00;99.90;;;;;;4897256;29;20052;-92
2022/01/19 09:25:09;;;;;;;8.18;1.60;;;7.00;99.90;;;;;;4904590;29;20032;-93
2022/01/19 09:27:38;;;;;;;15.23;1.92;;;7.00;99.90;;;;;;4909369;29;20512;-94
2022/01/19 09:30:06;;;;;;;7.20;1.77;;;7.00;99.90;;;;;;4924334;29;20043;-94
2022/01/19 09:32:32;;;;;;;14.50;2.28;;;7.00;99.90;;;;;;4912990;29;20073;-94
2022/01/19 09:35:06;;;;;;;6.13;2.55;;;7.10;99.90;;;;;;4911742;29;20032;-95
2022/01/19 09:37:33;;;;;;;12.50;2.20;;;7.10;99.90;;;;;;4909657;29;20032;-96
2022/01/19 09:39:59;;;;;;;16.50;2.40;;;7.20;99.90;;;;;;4904979;29;20024;-95
2022/01/19 09:42:24;;;;;;;14.65;2.00;;;7.30;99.90;;;;;;4923371;29;20433;-93
2022/01/19 09:44:52;;;;;;;14.77;2.30;;;7.40;99.90;;;;;;4925388;29;20126;-96
2022/01/19 09:47:18;;;;;;;23.77;3.95;;;7.40;99.90;;;;;;4916054;29;20066;-95
2022/01/19 09:52:54;;;;;;;17.17;1.67;;;7.40;99.90;;;;;;5324318;23;20062;-95
2022/01/19 09:55:20;;;;;;;16.10;2.20;;;7.40;99.90;;;;;;4926048;29;20031;-94
2022/01/19 09:57:46;;;;;;;14.43;1.98;;;7.30;99.90;;;;;;4922791;29;20032;-93
2022/01/19 10:00:12;;;;;;;28.85;3.90;;;7.40;99.90;;;;;;4921822;29;20032;-93
2022/01/19 10:02:38;;;;;;;10.75;2.13;;;7.40;99.90;;;;;;4924670;29;20489;-95
2022/01/19 10:05:08;;;;;;;14.80;1.77;;;7.50;99.90;;;;;;4923743;29;20094;-94
2022/01/19 10:07:34;;;;;;;13.82;2.30;;;7.70;99.90;;;;;;4924858;29;20028;-95
2022/01/19 10:10:06;;;;;;;12.85;1.80;;;7.90;99.90;;;;;;4910117;29;20044;-95
2022/01/19 10:18:25;;;;;;;14.77;1.83;;;8.50;99.90;;;;;;4952430;29;20050;-92
2022/01/19 10:21:16;;;;;;;15.57;2.25;;;8.80;99.90;;;;;;4937360;29;20047;-94
2022/01/19 10:23:48;;;;;;;12.05;1.80;;;8.90;99.90;;;;;;4935514;29;20035;-95
2022/01/19 10:26:22;;;;;;;12.68;1.98;;;9.20;99.90;;;;;;4932120;29;20032;-96
2022/01/19 10:29:09;;;;;;;12.75;2.03;;;9.40;99.90;;;;;;4935159;29;20083;-94
2022/01/19 10:31:37;;;;;;;17.30;2.35;;;9.60;99.90;;;;;;4932396;29;20023;-95
2022/01/19 10:34:19;;;;;;;16.67;2.30;;;9.70;99.90;;;;;;4935855;29;20130;-94
2022/01/19 10:36:47;;;;;;;12.18;2.10;;;9.80;99.90;;;;;;4938089;29;20083;-93
2022/01/19 10:39:15;;;;;;;12.63;2.00;;;10.00;99.90;;;;;;4942038;29;20046;-92
2022/01/19 10:42:01;;;;;;;12.30;1.67;;;10.20;99.90;;;;;;4937300;29;20028;-95
2022/01/19 10:44:34;;;;;;;16.73;1.50;;;10.30;99.90;;;;;;4941224;29;20039;-95
2022/01/19 10:47:00;;;;;;;8.73;1.55;;;10.50;99.90;;;;;;4941044;29;20059;-94
2022/01/19 10:49:26;;;;;;;13.40;2.53;;;10.70;99.90;;;;;;4924638;29;20044;-94
2022/01/19 11:00:34;;;;;;;11.98;1.83;;;11.10;99.90;;;;;;5576708;23;20063;-92
2022/01/19 11:15:15;;;;;;;11.50;1.70;;;11.60;99.50;;;;;;5144702;23;19922;-91
2022/01/19 11:17:41;;;;;;;13.10;1.80;;;11.70;98.60;;;;;;4928599;29;20032;-93
2022/01/19 11:20:11;;;;;;;14.60;2.28;;;11.80;98.30;;;;;;4924357;29;20127;-92
2022/01/19 11:23:06;;;;;;;15.10;2.47;;;11.90;97.30;;;;;;4922205;29;20470;-92
2022/01/19 11:25:51;;;;;;;12.30;1.98;;;12.00;96.50;;;;;;4937543;29;20036;-94
2022/01/19 11:28:27;;;;;;;13.43;2.00;;;12.10;95.50;;;;;;4920541;29;20572;-93
2022/01/19 11:30:53;;;;;;;14.07;2.47;;;12.10;94.30;;;;;;4936460;29;20032;-92
2022/01/19 11:33:24;;;;;;;18.73;2.45;;;12.00;93.90;;;;;;4920575;29;20043;-93
2022/01/19 11:35:53;;;;;;;15.15;2.28;;;12.00;93.90;;;;;;4920497;29;20035;-91
2022/01/19 11:38:36;;;;;;;20.88;2.63;;;12.00;92.90;;;;;;4937651;29;20027;-92
2022/01/19 11:41:25;;;;;;;14.15;2.25;;;11.70;92.20;;;;;;4921492;29;20047;-93
2022/01/19 11:43:54;;;;;;;8.15;1.67;;;11.60;92.80;;;;;;4920340;29;20027;-94
2022/01/19 11:46:36;;;;;;;8.07;1.60;;;11.60;92.90;;;;;;4920827;29;20382;-93
2022/01/19 11:49:04;;;;;;;9.90;1.80;;;11.60;92.80;;;;;;4920265;29;20032;-93
2022/01/19 11:51:34;;;;;;;13.85;2.30;;;11.80;92.90;;;;;;4920715;29;20036;-93
2022/01/19 11:54:02;;;;;;;8.85;2.05;;;11.90;92.60;;;;;;4920050;29;20031;-94
2022/01/19 11:56:29;;;;;;;14.00;2.53;;;12.10;92.40;;;;;;4902042;29;20683;-94
2022/01/19 11:59:13;;;;;;;10.90;2.08;;;12.30;91.90;;;;;;4902430;29;20131;-93
2022/01/19 12:01:39;;;;;;;11.18;1.83;;;12.40;90.80;;;;;;4919821;29;20132;-94
2022/01/19 12:04:24;;;;;;;15.43;2.17;;;12.50;90.40;;;;;;4903712;29;20032;-93
2022/01/19 12:06:50;;;;;;;11.93;1.83;;;12.70;90.00;;;;;;4907153;29;20045;-94
2022/01/19 12:09:19;;;;;;;11.77;2.67;;;12.90;89.70;;;;;;4903896;29;20040;-96
2022/01/19 12:11:51;;;;;;;10.75;1.67;;;13.00;88.90;;;;;;4903092;29;20052;-93
2022/01/19 12:14:34;;;;;;;10.48;2.42;;;13.30;88.60;;;;;;4900738;29;20478;-92
2022/01/19 12:17:24;;;;;;;10.00;1.77;;;13.40;87.10;;;;;;4901219;29;20044;-94
2022/01/19 12:19:50;;;;;;;11.90;2.78;;;13.70;86.70;;;;;;4907038;29;20167;-93
2022/01/19 12:22:22;;;;;;;9.70;2.08;;;14.00;85.50;;;;;;4912580;29;20028;-95
2022/01/19 12:25:00;;;;;;;8.95;2.45;;;14.10;83.40;;;;;;4919732;29;20028;-94
2022/01/19 12:27:27;;;;;;;14.85;2.40;;;14.20;82.90;;;;;;4920832;29;20104;-94
2022/01/19 12:30:09;;;;;;;8.00;1.80;;;14.20;82.20;;;;;;4935756;29;20091;-95
2022/01/19 12:32:46;;;;;;;12.35;2.35;;;14.30;82.20;;;;;;4923216;29;20020;-95
2022/01/19 12:35:20;;;;;;;10.93;1.90;;;14.30;80.90;;;;;;4922473;29;20013;-94
2022/01/19 12:37:56;;;;;;;8.38;1.67;;;14.40;80.80;;;;;;4923586;29;20020;-92
2022/01/19 12:40:27;;;;;;;12.52;2.03;;;14.30;79.00;;;;;;4923355;29;20059;-93
2022/01/19 12:42:59;;;;;;;11.20;1.77;;;14.30;79.10;;;;;;4922977;29;20069;-92
2022/01/19 12:45:35;;;;;;;11.68;2.70;;;14.40;79.30;;;;;;4938810;29;20040;-92
2022/01/19 12:48:03;;;;;;;13.15;2.08;;;14.60;79.20;;;;;;4922375;29;20031;-93
2022/01/19 12:50:28;;;;;;;10.27;1.98;;;14.80;78.10;;;;;;4919224;29;20044;-94
2022/01/19 12:53:03;;;;;;;13.90;1.90;;;14.70;76.50;;;;;;4922749;29;20020;-92
2022/01/19 12:55:34;;;;;;;9.77;1.85;;;14.70;76.70;;;;;;4923316;29;20023;-92
2022/01/19 12:58:01;;;;;;;12.82;2.17;;;14.90;76.90;;;;;;4905454;29;20101;-92
2022/01/19 13:00:31;;;;;;;11.00;2.35;;;14.80;76.30;;;;;;4923124;29;20084;-92
2022/01/19 13:02:59;;;;;;;7.97;2.10;;;14.80;76.10;;;;;;4923787;29;20016;-93
2022/01/19 13:05:31;;;;;;;15.13;1.77;;;14.80;76.20;;;;;;4923019;29;20087;-91
2022/01/19 13:08:01;;;;;;;11.57;1.98;;;14.60;75.80;;;;;;4921845;29;20016;-92
2022/01/19 13:10:43;;;;;;;9.82;1.92;;;14.50;75.90;;;;;;4919336;29;20036;-94
2022/01/19 13:13:18;;;;;;;7.55;1.40;;;14.50;75.70;;;;;;4920688;29;20028;-94
2022/01/19 13:15:49;;;;;;;11.82;1.77;;;14.60;75.70;;;;;;4922691;29;20130;-94
2022/01/19 13:18:38;;;;;;;10.63;2.38;;;14.90;75.60;;;;;;4921302;29;20048;-94
2022/01/19 13:21:16;;;;;;;11.27;1.70;;;15.20;74.50;;;;;;4920433;29;20031;-91
2022/01/19 13:24:14;;;;;;;8.13;1.88;;;15.40;73.50;;;;;;4922304;29;20040;-92
2022/01/19 13:26:47;;;;;;;9.35;1.95;;;15.40;72.50;;;;;;4922540;29;20032;-91
2022/01/19 13:29:39;;;;;;;7.85;1.73;;;15.40;72.40;;;;;;4941361;29;20047;-94
2022/01/19 13:32:12;;;;;;;8.45;1.98;;;15.30;71.70;;;;;;4930193;29;20012;-95
2022/01/19 13:35:06;;;;;;;7.93;1.52;;;15.10;71.00;;;;;;4932541;29;20028;-93
2022/01/19 13:37:54;;;;;;;5.95;1.33;;;15.00;71.50;;;;;;4933655;29;20044;-93
2022/01/19 13:51:10;;;;;;;7.82;1.58;;;14.80;71.00;;;;;;4987108;28;20051;-94
2022/01/19 13:53:46;;;;;;;7.05;1.23;;;14.20;71.50;;;;;;4987486;28;20038;-94
2022/01/19 13:56:24;;;;;;;10.88;1.35;;;13.60;72.40;;;;;;4952582;28;20023;-93
2022/01/19 13:59:09;;;;;;;10.57;2.00;;;12.90;73.70;;;;;;4954115;28;20042;-93
2022/01/19 14:01:37;;;;;;;7.93;1.40;;;12.30;75.50;;;;;;4952961;28;20015;-90
2022/01/19 14:04:07;;;;;;;6.00;1.42;;;11.90;76.80;;;;;;4952691;28;20043;-91
2022/01/19 14:06:36;;;;;;;12.80;1.80;;;11.50;78.10;;;;;;4954427;28;20031;-92
2022/01/19 14:09:09;;;;;;;9.10;1.65;;;11.20;79.30;;;;;;4955296;28;20044;-92
2022/01/19 14:11:38;;;;;;;13.73;1.90;;;11.00;80.00;;;;;;4954663;28;20019;-94
2022/01/19 14:14:11;;;;;;;10.43;1.58;;;10.90;80.60;;;;;;4952245;28;20028;-92
2022/01/19 14:16:46;;;;;;;10.70;1.33;;;10.90;81.20;;;;;;4954290;28;20014;-93
2022/01/19 14:19:26;;;;;;;9.93;1.33;;;10.90;81.70;;;;;;4972058;28;20030;-92
2022/01/19 14:22:27;;;;;;;6.55;1.35;;;10.90;82.10;;;;;;4974579;28;20043;-92
2022/01/19 14:25:14;;;;;;;8.05;1.40;;;11.20;82.20;;;;;;4973596;28;20015;-92
2022/01/19 14:27:52;;;;;;;12.40;2.03;;;11.80;81.40;;;;;;4965192;28;20015;-92
2022/01/19 14:30:23;;;;;;;9.32;1.42;;;12.40;80.00;;;;;;4963069;28;20027;-92
2022/01/19 14:33:03;;;;;;;9.60;1.50;;;12.90;78.40;;;;;;4973221;28;20118;-91
2022/01/19 14:35:36;;;;;;;7.80;1.50;;;13.30;77.10;;;;;;4975805;28;20083;-91
2022/01/19 14:38:16;;;;;;;7.20;1.30;;;13.60;75.70;;;;;;4972860;28;20019;-93
2022/01/19 14:41:18;;;;;;;9.15;2.20;;;13.70;75.40;;;;;;4973132;28;20023;-94
2022/01/19 14:43:53;;;;;;;10.60;1.90;;;13.90;74.80;;;;;;4971160;28;20101;-92
2022/01/19 14:46:35;;;;;;;9.82;1.55;;;13.90;74.40;;;;;;4970788;28;20027;-92
2022/01/19 14:49:01;;;;;;;7.45;1.35;;;13.80;74.20;;;;;;4971236;28;20110;-92
2022/01/19 14:51:37;;;;;;;8.35;1.40;;;13.40;74.20;;;;;;4972567;28;20082;-93
2022/01/19 14:54:11;;;;;;;7.90;1.90;;;12.60;75.70;;;;;;4970988;28;20035;-92